createdAt,value
2018-05-19T00:02:03.288Z,1015.62
2018-05-19T00:06:59.094Z,1015.55
2018-05-19T00:11:54.888Z,1015.61
2018-05-19T00:16:50.734Z,1015.56
2018-05-19T00:21:46.548Z,1015.61
2018-05-19T00:26:42.588Z,1015.47
2018-05-19T00:31:38.303Z,1015.56
2018-05-19T00:36:34.335Z,1015.58
2018-05-19T00:41:29.871Z,1015.57
2018-05-19T00:46:25.678Z,1015.60
2018-05-19T00:51:21.370Z,1015.51
2018-05-19T00:56:18.531Z,1015.53
2018-05-19T01:01:14.928Z,1015.51
2018-05-19T01:06:10.944Z,1015.53
2018-05-19T01:11:08.375Z,1015.54
2018-05-19T01:16:03.748Z,1015.45
2018-05-19T01:20:59.520Z,1015.50
2018-05-19T01:25:55.295Z,1015.44
2018-05-19T01:30:51.889Z,1015.47
2018-05-19T01:35:47.574Z,1015.53
2018-05-19T01:40:44.349Z,1015.49
2018-05-19T01:45:39.863Z,1015.38
2018-05-19T01:50:35.675Z,1015.44
2018-05-19T01:55:31.109Z,1015.47
2018-05-19T02:00:27.005Z,1015.50
2018-05-19T02:05:23.048Z,1015.45
2018-05-19T02:10:21.127Z,1015.49
2018-05-19T02:15:16.320Z,1015.47
2018-05-19T02:20:12.081Z,1015.47
2018-05-19T02:25:07.999Z,1015.41
2018-05-19T02:30:04.671Z,1015.49
2018-05-19T02:35:00.075Z,1015.41
2018-05-19T02:39:56.275Z,1015.44
2018-05-19T02:44:51.827Z,1015.41
2018-05-19T02:49:48.804Z,1015.42
2018-05-19T02:54:44.126Z,1015.43
2018-05-19T02:59:40.567Z,1015.49
2018-05-19T03:04:36.483Z,1015.47
2018-05-19T03:09:32.240Z,1015.43
2018-05-19T03:14:29.077Z,1015.31
2018-05-19T03:19:24.756Z,1015.39
2018-05-19T03:24:21.495Z,1015.30
2018-05-19T03:29:17.026Z,1015.40
2018-05-19T03:34:12.690Z,1015.31
2018-05-19T03:39:08.456Z,1015.41
2018-05-19T03:44:04.649Z,1015.45
2018-05-19T03:49:00.524Z,1015.48
2018-05-19T03:53:56.416Z,1015.53
2018-05-19T03:58:52.209Z,1015.55
2018-05-19T04:03:48.390Z,1015.61
2018-05-19T04:08:43.826Z,1015.72
2018-05-19T04:13:40.550Z,1015.74
2018-05-19T04:18:35.981Z,1015.78
2018-05-19T04:23:31.244Z,1015.79
2018-05-19T04:28:27.173Z,1015.85
2018-05-19T04:33:23.046Z,1015.82
2018-05-19T04:38:18.902Z,1015.89
2018-05-19T04:43:14.748Z,1015.87
2018-05-19T04:48:10.573Z,1015.84
2018-05-19T04:53:07.499Z,1015.86
2018-05-19T04:58:03.356Z,1015.95
2018-05-19T05:02:59.320Z,1015.95
2018-05-19T05:07:55.065Z,1015.96
2018-05-19T05:12:51.994Z,1016.01
2018-05-19T05:17:48.490Z,1016.00
2018-05-19T05:22:45.439Z,1016.00
2018-05-19T05:27:41.073Z,1016.05
2018-05-19T05:32:37.172Z,1016.13
2018-05-19T05:37:34.183Z,1016.20
2018-05-19T05:42:30.340Z,1016.26
2018-05-19T05:47:26.333Z,1016.33
2018-05-19T05:52:23.319Z,1016.41
2018-05-19T05:57:19.122Z,1016.52
2018-05-19T06:02:15.289Z,1016.52
2018-05-19T06:07:11.725Z,1016.41
2018-05-19T06:12:08.873Z,1016.59
2018-05-19T06:17:04.842Z,1016.59
2018-05-19T06:22:02.271Z,1016.55
2018-05-19T06:26:59.158Z,1016.56
2018-05-19T06:31:55.077Z,1016.59
2018-05-19T06:36:50.886Z,1016.63
2018-05-19T06:41:46.461Z,1016.69
2018-05-19T06:46:43.321Z,1016.61
2018-05-19T06:51:39.342Z,1016.55
2018-05-19T06:56:36.712Z,1016.74
2018-05-19T07:01:32.032Z,1016.66
2018-05-19T07:06:27.783Z,1016.75
2018-05-19T07:11:23.687Z,1016.74
2018-05-19T07:16:19.768Z,1016.75
2018-05-19T07:21:16.098Z,1016.79
2018-05-19T07:26:12.404Z,1016.76
2018-05-19T07:31:08.425Z,1016.68
2018-05-19T07:36:05.492Z,1016.58
2018-05-19T07:41:00.905Z,1016.65
2018-05-19T07:45:57.136Z,1016.60
2018-05-19T07:50:54.446Z,1016.59
2018-05-19T07:55:50.301Z,1016.62
2018-05-19T08:00:46.414Z,1016.57
2018-05-19T08:05:42.061Z,1016.57
2018-05-19T08:10:37.417Z,1016.58
2018-05-19T08:15:32.735Z,1016.54
2018-05-19T08:20:28.604Z,1016.61
2018-05-19T08:25:25.624Z,1016.62
2018-05-19T08:30:22.161Z,1016.64
2018-05-19T08:35:21.252Z,1016.61
2018-05-19T08:40:18.990Z,1016.50
2018-05-19T08:45:14.899Z,1016.66
2018-05-19T08:50:12.806Z,1016.68
2018-05-19T08:55:10.269Z,1016.67
2018-05-19T09:00:08.224Z,1016.68
2018-05-19T09:05:04.925Z,1016.69
2018-05-19T09:09:59.779Z,1016.67
2018-05-19T09:14:55.907Z,1016.52
2018-05-19T09:19:52.362Z,1016.55
2018-05-19T09:24:49.346Z,1016.76
2018-05-19T09:29:47.458Z,1016.69
2018-05-19T09:34:44.041Z,1016.65
2018-05-19T09:39:40.656Z,1016.72
2018-05-19T09:44:37.503Z,1016.84
2018-05-19T09:49:31.160Z,1016.69
2018-05-19T09:54:26.431Z,1016.79
2018-05-19T09:59:24.314Z,1016.79
2018-05-19T10:04:20.826Z,1016.77
2018-05-19T10:09:17.574Z,1016.59
2018-05-19T10:14:12.144Z,1016.66
2018-05-19T10:19:08.895Z,1016.60
2018-05-19T10:24:02.683Z,1016.44
2018-05-19T10:28:58.877Z,1016.53
2018-05-19T10:33:54.467Z,1016.55
2018-05-19T10:38:50.348Z,1016.60
2018-05-19T10:43:45.323Z,1016.49
2018-05-19T10:48:40.477Z,1016.45
2018-05-19T10:53:36.164Z,1016.53
2018-05-19T10:58:32.139Z,1016.56
2018-05-19T11:03:28.077Z,1016.48
2018-05-19T11:08:23.091Z,1016.51
2018-05-19T11:13:19.999Z,1016.51
2018-05-19T11:18:15.487Z,1016.59
2018-05-19T11:23:12.243Z,1016.58
2018-05-19T11:28:11.266Z,1016.53
2018-05-19T11:33:06.307Z,1016.51
2018-05-19T11:38:01.976Z,1016.46
2018-05-19T11:43:00.538Z,1016.43
2018-05-19T11:47:56.124Z,1016.59
2018-05-19T11:52:52.992Z,1016.56
2018-05-19T11:57:47.462Z,1016.49
2018-05-19T12:02:42.541Z,1016.42
2018-05-19T12:07:38.513Z,1016.43
2018-05-19T12:12:34.706Z,1016.42
2018-05-19T12:17:31.045Z,1016.41
2018-05-19T12:22:27.034Z,1016.32
2018-05-19T12:27:26.981Z,1016.35
2018-05-19T12:32:25.544Z,1016.38
2018-05-19T12:37:23.084Z,1016.29
2018-05-19T12:42:20.134Z,1016.16
2018-05-19T12:47:17.949Z,1016.20
2018-05-19T12:52:10.507Z,1016.18
2018-05-19T12:57:04.993Z,1016.18
2018-05-19T13:02:01.674Z,1016.15
2018-05-19T13:06:57.642Z,1016.06
2018-05-19T13:11:53.745Z,1016.07
2018-05-19T13:16:49.482Z,1016.18
2018-05-19T13:21:43.546Z,1016.16
2018-05-19T13:26:38.043Z,1016.09
2018-05-19T13:31:34.191Z,1016.06
2018-05-19T13:36:29.553Z,1016.13
2018-05-19T13:41:26.044Z,1016.05
2018-05-19T13:46:23.862Z,1016.09
2018-05-19T13:51:21.069Z,1016.00
2018-05-19T13:56:18.236Z,1015.92
2018-05-19T14:01:14.287Z,1015.84
2018-05-19T14:06:09.738Z,1015.81
2018-05-19T14:11:06.423Z,1015.84
2018-05-19T14:16:01.841Z,1015.79
2018-05-19T14:20:56.902Z,1015.78
2018-05-19T14:25:52.138Z,1015.88
2018-05-19T14:30:48.517Z,1015.94
2018-05-19T14:35:43.714Z,1015.87
2018-05-19T14:40:39.239Z,1015.88
2018-05-19T14:45:34.779Z,1015.73
2018-05-19T14:50:31.590Z,1015.69
2018-05-19T14:55:27.322Z,1015.74
2018-05-19T15:00:23.272Z,1015.70
2018-05-19T15:05:19.675Z,1015.68
2018-05-19T15:10:16.398Z,1015.69
2018-05-19T15:15:12.167Z,1015.71
2018-05-19T15:20:08.095Z,1015.65
2018-05-19T15:25:03.899Z,1015.66
2018-05-19T15:29:59.556Z,1015.60
2018-05-19T15:34:55.180Z,1015.56
2018-05-19T15:39:50.901Z,1015.59
2018-05-19T15:44:47.030Z,1015.61
2018-05-19T15:49:42.935Z,1015.54
2018-05-19T15:54:38.641Z,1015.55
2018-05-19T15:59:34.747Z,1015.49
2018-05-19T16:04:30.292Z,1015.45
2018-05-19T16:09:27.170Z,1015.48
2018-05-19T16:14:22.798Z,1015.48
2018-05-19T16:19:18.700Z,1015.43
2018-05-19T16:24:14.058Z,1015.45
2018-05-19T16:29:10.103Z,1015.42
2018-05-19T16:34:06.376Z,1015.34
2018-05-19T16:39:03.097Z,1015.35
2018-05-19T16:43:59.189Z,1015.43
2018-05-19T16:48:54.909Z,1015.39
2018-05-19T16:53:50.633Z,1015.31
2018-05-19T16:58:46.333Z,1015.33
2018-05-19T17:03:41.908Z,1015.31
2018-05-19T17:08:38.148Z,1015.33
2018-05-19T17:13:35.289Z,1015.36
2018-05-19T17:18:30.910Z,1015.42
2018-05-19T17:23:27.870Z,1015.34
2018-05-19T17:28:24.914Z,1015.30
2018-05-19T17:33:21.619Z,1015.30
2018-05-19T17:38:17.216Z,1015.23
2018-05-19T17:43:13.144Z,1015.32
2018-05-19T17:48:09.048Z,1015.33
2018-05-19T17:53:04.866Z,1015.34
2018-05-19T17:58:00.432Z,1015.47
2018-05-19T18:02:56.400Z,1015.54
2018-05-19T18:07:51.941Z,1015.57
2018-05-19T18:12:48.693Z,1015.60
2018-05-19T18:17:43.968Z,1015.56
2018-05-19T18:22:39.640Z,1015.59
2018-05-19T18:27:35.423Z,1015.70
2018-05-19T18:32:30.971Z,1015.68
2018-05-19T18:37:26.659Z,1015.68
2018-05-19T18:42:22.291Z,1015.69
2018-05-19T18:47:17.828Z,1015.70
2018-05-19T18:52:13.633Z,1015.69
2018-05-19T18:57:09.145Z,1015.78
2018-05-19T19:02:04.923Z,1015.83
2018-05-19T19:07:00.477Z,1015.95
2018-05-19T19:11:56.403Z,1015.89
2018-05-19T19:16:52.223Z,1015.89
2018-05-19T19:21:48.932Z,1016.10
2018-05-19T19:26:45.478Z,1016.10
2018-05-19T19:31:41.106Z,1016.13
2018-05-19T19:36:38.530Z,1016.09
2018-05-19T19:41:34.005Z,1016.13
2018-05-19T19:46:29.534Z,1016.20
2018-05-19T19:51:25.412Z,1016.28
2018-05-19T19:56:21.503Z,1016.27
2018-05-19T20:01:17.227Z,1016.39
2018-05-19T20:06:13.042Z,1016.44
2018-05-19T20:11:09.692Z,1016.44
2018-05-19T20:16:05.161Z,1016.40
2018-05-19T20:21:00.841Z,1016.26
2018-05-19T20:25:56.869Z,1016.32
2018-05-19T20:30:53.623Z,1016.35
2018-05-19T20:35:49.270Z,1016.35
2018-05-19T20:40:46.353Z,1016.32
2018-05-19T20:45:41.820Z,1016.37
2018-05-19T20:50:37.664Z,1016.42
2018-05-19T20:55:33.149Z,1016.42
2018-05-19T21:00:29.047Z,1016.42
2018-05-19T21:05:25.560Z,1016.42
2018-05-19T21:10:21.172Z,1016.41
2018-05-19T21:15:17.301Z,1016.40
2018-05-19T21:20:12.980Z,1016.51
2018-05-19T21:25:08.752Z,1016.46
2018-05-19T21:30:04.772Z,1016.58
2018-05-19T21:35:00.338Z,1016.72
2018-05-19T21:39:55.918Z,1016.71
2018-05-19T21:44:51.835Z,1016.65
2018-05-19T21:49:47.185Z,1016.66
2018-05-19T21:54:43.149Z,1016.68
2018-05-19T21:59:39.254Z,1016.57
2018-05-19T22:04:36.024Z,1016.62
2018-05-19T22:09:31.579Z,1016.63
2018-05-19T22:14:27.437Z,1016.58
2018-05-19T22:19:24.386Z,1016.54
2018-05-19T22:24:19.877Z,1016.68
2018-05-19T22:29:15.505Z,1016.62
2018-05-19T22:34:11.332Z,1016.64
2018-05-19T22:39:07.145Z,1016.73
2018-05-19T22:44:03.774Z,1016.76
2018-05-19T22:49:00.270Z,1016.74
2018-05-19T22:53:55.832Z,1016.80
2018-05-19T22:58:51.717Z,1016.77
2018-05-19T23:03:47.298Z,1016.77
2018-05-19T23:08:43.940Z,1016.80
2018-05-19T23:13:39.367Z,1016.79
2018-05-19T23:18:34.901Z,1016.79
2018-05-19T23:23:32.027Z,1016.78
2018-05-19T23:28:27.613Z,1016.78
2018-05-19T23:33:24.437Z,1016.73
2018-05-19T23:38:19.724Z,1016.79
2018-05-19T23:43:15.597Z,1016.74
2018-05-19T23:48:11.190Z,1016.86
2018-05-19T23:53:06.949Z,1016.85
2018-05-19T23:58:02.648Z,1016.78
